sensor_id;sensor_type;location;lat;lon;timestamp;temperature;humidity
28773;DHT22;15925;51.222;5.678;2023-04-24T00:00:04;10.90;99.90
28773;DHT22;15925;51.222;5.678;2023-04-24T00:02:35;10.90;99.90
28773;DHT22;15925;51.222;5.678;2023-04-24T00:05:04;10.90;99.90
28773;DHT22;15925;51.222;5.678;2023-04-24T00:07:31;10.90;99.90
28773;DHT22;15925;51.222;5.678;2023-04-24T00:09:57;10.90;99.90
28773;DHT22;15925;51.222;5.678;2023-04-24T00:12:23;10.90;99.90
28773;DHT22;15925;51.222;5.678;2023-04-24T00:14:49;10.80;99.90
28773;DHT22;15925;51.222;5.678;2023-04-24T00:17:15;10.80;99.90
28773;DHT22;15925;51.222;5.678;2023-04-24T00:19:41;10.80;99.90
28773;DHT22;15925;51.222;5.678;2023-04-24T00:22:07;10.80;99.90
28773;DHT22;15925;51.222;5.678;2023-04-24T00:24:33;10.80;99.90
28773;DHT22;15925;51.222;5.678;2023-04-24T00:26:59;10.80;99.90
28773;DHT22;15925;51.222;5.678;2023-04-24T00:29:26;10.70;99.90
28773;DHT22;15925;51.222;5.678;2023-04-24T00:31:52;10.80;99.90
28773;DHT22;15925;51.222;5.678;2023-04-24T00:34:18;10.70;99.90
28773;DHT22;15925;51.222;5.678;2023-04-24T00:36:43;10.70;99.90
28773;DHT22;15925;51.222;5.678;2023-04-24T00:39:10;10.70;99.90
28773;DHT22;15925;51.222;5.678;2023-04-24T00:41:36;10.70;99.90
28773;DHT22;15925;51.222;5.678;2023-04-24T00:44:01;10.70;99.90
28773;DHT22;15925;51.222;5.678;2023-04-24T00:46:28;10.60;99.90
28773;DHT22;15925;51.222;5.678;2023-04-24T00:48:54;10.70;99.90
28773;DHT22;15925;51.222;5.678;2023-04-24T00:51:21;10.60;99.90
28773;DHT22;15925;51.222;5.678;2023-04-24T00:53:47;10.60;99.90
28773;DHT22;15925;51.222;5.678;2023-04-24T00:56:13;10.70;99.90
28773;DHT22;15925;51.222;5.678;2023-04-24T00:58:39;10.60;99.90
28773;DHT22;15925;51.222;5.678;2023-04-24T01:01:06;10.60;99.90
28773;DHT22;15925;51.222;5.678;2023-04-24T01:03:33;10.70;99.90
28773;DHT22;15925;51.222;5.678;2023-04-24T01:05:59;10.60;99.90
28773;DHT22;15925;51.222;5.678;2023-04-24T01:08:26;10.60;99.90
28773;DHT22;15925;51.222;5.678;2023-04-24T01:10:53;10.60;99.90
28773;DHT22;15925;51.222;5.678;2023-04-24T01:13:20;10.60;99.90
28773;DHT22;15925;51.222;5.678;2023-04-24T01:15:46;10.60;99.90
28773;DHT22;15925;51.222;5.678;2023-04-24T01:18:12;10.60;99.90
28773;DHT22;15925;51.222;5.678;2023-04-24T01:20:42;10.60;99.90
28773;DHT22;15925;51.222;5.678;2023-04-24T01:23:09;10.60;99.90
28773;DHT22;15925;51.222;5.678;2023-04-24T01:25:36;10.60;99.90
28773;DHT22;15925;51.222;5.678;2023-04-24T01:28:03;10.50;99.90
28773;DHT22;15925;51.222;5.678;2023-04-24T01:30:31;10.60;99.90
28773;DHT22;15925;51.222;5.678;2023-04-24T01:32:58;10.50;99.90
28773;DHT22;15925;51.222;5.678;2023-04-24T01:35:24;10.50;99.90
28773;DHT22;15925;51.222;5.678;2023-04-24T01:37:51;10.50;99.90
28773;DHT22;15925;51.222;5.678;2023-04-24T01:40:17;10.50;99.90
28773;DHT22;15925;51.222;5.678;2023-04-24T01:42:42;10.50;99.90
28773;DHT22;15925;51.222;5.678;2023-04-24T01:45:11;10.50;99.90
28773;DHT22;15925;51.222;5.678;2023-04-24T01:47:37;10.50;99.90
28773;DHT22;15925;51.222;5.678;2023-04-24T01:50:05;10.50;99.90
28773;DHT22;15925;51.222;5.678;2023-04-24T01:52:31;10.60;99.90
28773;DHT22;15925;51.222;5.678;2023-04-24T01:55:04;10.50;99.90
28773;DHT22;15925;51.222;5.678;2023-04-24T01:57:31;10.50;99.90
28773;DHT22;15925;51.222;5.678;2023-04-24T01:59:57;10.50;99.90
28773;DHT22;15925;51.222;5.678;2023-04-24T02:02:23;10.50;99.90
28773;DHT22;15925;51.222;5.678;2023-04-24T02:04:50;10.50;99.90
28773;DHT22;15925;51.222;5.678;2023-04-24T02:07:16;10.50;99.90
28773;DHT22;15925;51.222;5.678;2023-04-24T02:09:42;10.50;99.90
28773;DHT22;15925;51.222;5.678;2023-04-24T02:12:08;10.50;99.90
28773;DHT22;15925;51.222;5.678;2023-04-24T02:14:34;10.50;99.90
28773;DHT22;15925;51.222;5.678;2023-04-24T02:16:59;10.50;99.90
28773;DHT22;15925;51.222;5.678;2023-04-24T02:19:26;10.50;99.90
28773;DHT22;15925;51.222;5.678;2023-04-24T02:21:52;10.50;99.90
28773;DHT22;15925;51.222;5.678;2023-04-24T02:24:18;10.50;99.90
28773;DHT22;15925;51.222;5.678;2023-04-24T02:26:43;10.40;99.90
28773;DHT22;15925;51.222;5.678;2023-04-24T02:29:09;10.50;99.90
28773;DHT22;15925;51.222;5.678;2023-04-24T02:31:35;10.40;99.90
28773;DHT22;15925;51.222;5.678;2023-04-24T02:34:01;10.40;99.90
28773;DHT22;15925;51.222;5.678;2023-04-24T02:36:26;10.40;99.90
28773;DHT22;15925;51.222;5.678;2023-04-24T02:38:52;10.40;99.90
28773;DHT22;15925;51.222;5.678;2023-04-24T02:41:18;10.40;99.90
28773;DHT22;15925;51.222;5.678;2023-04-24T02:43:45;10.40;99.90
28773;DHT22;15925;51.222;5.678;2023-04-24T02:46:10;10.40;99.90
28773;DHT22;15925;51.222;5.678;2023-04-24T02:48:36;10.40;99.90
28773;DHT22;15925;51.222;5.678;2023-04-24T02:51:02;10.40;99.90
28773;DHT22;15925;51.222;5.678;2023-04-24T02:53:28;10.40;99.90
28773;DHT22;15925;51.222;5.678;2023-04-24T02:55:56;10.40;99.90
28773;DHT22;15925;51.222;5.678;2023-04-24T02:58:22;10.40;99.90
28773;DHT22;15925;51.222;5.678;2023-04-24T03:00:48;10.40;99.90
28773;DHT22;15925;51.222;5.678;2023-04-24T03:03:14;10.40;99.90
28773;DHT22;15925;51.222;5.678;2023-04-24T03:05:40;10.40;99.90
28773;DHT22;15925;51.222;5.678;2023-04-24T03:08:06;10.40;99.90
28773;DHT22;15925;51.222;5.678;2023-04-24T03:10:32;10.40;99.90
28773;DHT22;15925;51.222;5.678;2023-04-24T03:12:58;10.40;99.90
28773;DHT22;15925;51.222;5.678;2023-04-24T03:15:23;10.40;99.90
28773;DHT22;15925;51.222;5.678;2023-04-24T03:17:49;10.40;99.90
28773;DHT22;15925;51.222;5.678;2023-04-24T03:20:15;10.40;99.90
28773;DHT22;15925;51.222;5.678;2023-04-24T03:22:41;10.30;99.90
28773;DHT22;15925;51.222;5.678;2023-04-24T03:25:08;10.40;99.90
28773;DHT22;15925;51.222;5.678;2023-04-24T03:27:35;10.40;99.90
28773;DHT22;15925;51.222;5.678;2023-04-24T03:30:05;10.40;99.90
28773;DHT22;15925;51.222;5.678;2023-04-24T03:32:52;10.30;99.90
28773;DHT22;15925;51.222;5.678;2023-04-24T03:35:22;10.30;99.90
28773;DHT22;15925;51.222;5.678;2023-04-24T03:37:48;10.30;99.90
28773;DHT22;15925;51.222;5.678;2023-04-24T03:40:34;10.20;99.90
28773;DHT22;15925;51.222;5.678;2023-04-24T03:43:03;10.20;99.90
28773;DHT22;15925;51.222;5.678;2023-04-24T03:45:29;10.10;99.90
28773;DHT22;15925;51.222;5.678;2023-04-24T03:47:56;10.10;99.90
28773;DHT22;15925;51.222;5.678;2023-04-24T03:50:22;10.10;99.90
28773;DHT22;15925;51.222;5.678;2023-04-24T03:52:48;10.10;99.90
28773;DHT22;15925;51.222;5.678;2023-04-24T03:55:24;10.10;99.90
28773;DHT22;15925;51.222;5.678;2023-04-24T03:57:49;10.10;99.90
28773;DHT22;15925;51.222;5.678;2023-04-24T04:00:21;10.10;99.90
28773;DHT22;15925;51.222;5.678;2023-04-24T04:02:53;10.10;99.90
28773;DHT22;15925;51.222;5.678;2023-04-24T04:05:19;10.00;99.90
28773;DHT22;15925;51.222;5.678;2023-04-24T04:07:45;10.00;99.90
28773;DHT22;15925;51.222;5.678;2023-04-24T04:10:11;10.00;99.90
28773;DHT22;15925;51.222;5.678;2023-04-24T04:12:37;10.00;99.90
28773;DHT22;15925;51.222;5.678;2023-04-24T04:15:03;10.00;99.90
28773;DHT22;15925;51.222;5.678;2023-04-24T04:17:30;10.00;99.90
28773;DHT22;15925;51.222;5.678;2023-04-24T04:19:57;9.90;99.90
28773;DHT22;15925;51.222;5.678;2023-04-24T04:22:23;9.90;99.90
28773;DHT22;15925;51.222;5.678;2023-04-24T04:24:50;9.90;99.90
28773;DHT22;15925;51.222;5.678;2023-04-24T04:27:19;9.90;99.90
28773;DHT22;15925;51.222;5.678;2023-04-24T04:29:58;9.90;99.90
28773;DHT22;15925;51.222;5.678;2023-04-24T04:32:35;9.90;99.90
28773;DHT22;15925;51.222;5.678;2023-04-24T04:35:03;9.90;99.90
28773;DHT22;15925;51.222;5.678;2023-04-24T04:37:32;9.80;99.90
28773;DHT22;15925;51.222;5.678;2023-04-24T04:40:14;9.90;99.90
28773;DHT22;15925;51.222;5.678;2023-04-24T04:42:49;9.90;99.90
28773;DHT22;15925;51.222;5.678;2023-04-24T04:45:19;9.90;99.90
28773;DHT22;15925;51.222;5.678;2023-04-24T04:48:06;9.90;99.90
28773;DHT22;15925;51.222;5.678;2023-04-24T04:50:34;9.90;99.90
28773;DHT22;15925;51.222;5.678;2023-04-24T04:53:05;9.80;99.90
28773;DHT22;15925;51.222;5.678;2023-04-24T04:55:34;9.80;99.90
28773;DHT22;15925;51.222;5.678;2023-04-24T04:58:10;9.90;99.90
28773;DHT22;15925;51.222;5.678;2023-04-24T05:00:36;9.80;99.90
28773;DHT22;15925;51.222;5.678;2023-04-24T05:03:09;9.80;99.90
28773;DHT22;15925;51.222;5.678;2023-04-24T05:05:35;9.80;99.90
28773;DHT22;15925;51.222;5.678;2023-04-24T05:08:01;9.80;99.90
28773;DHT22;15925;51.222;5.678;2023-04-24T05:10:27;9.80;99.90
28773;DHT22;15925;51.222;5.678;2023-04-24T05:12:55;9.80;99.90
28773;DHT22;15925;51.222;5.678;2023-04-24T05:15:20;9.70;99.90
28773;DHT22;15925;51.222;5.678;2023-04-24T05:17:46;9.70;99.90
28773;DHT22;15925;51.222;5.678;2023-04-24T05:20:13;9.60;99.90
28773;DHT22;15925;51.222;5.678;2023-04-24T05:22:40;9.70;99.90
28773;DHT22;15925;51.222;5.678;2023-04-24T05:25:06;9.70;99.90
28773;DHT22;15925;51.222;5.678;2023-04-24T05:27:49;9.70;99.90
28773;DHT22;15925;51.222;5.678;2023-04-24T05:30:17;9.70;99.90
28773;DHT22;15925;51.222;5.678;2023-04-24T05:32:42;9.60;99.90
28773;DHT22;15925;51.222;5.678;2023-04-24T05:35:08;9.60;99.90
28773;DHT22;15925;51.222;5.678;2023-04-24T05:37:35;9.60;99.90
28773;DHT22;15925;51.222;5.678;2023-04-24T05:40:01;9.50;99.90
28773;DHT22;15925;51.222;5.678;2023-04-24T05:42:27;9.50;99.90
28773;DHT22;15925;51.222;5.678;2023-04-24T05:44:53;9.40;99.90
28773;DHT22;15925;51.222;5.678;2023-04-24T05:47:20;9.50;99.90
28773;DHT22;15925;51.222;5.678;2023-04-24T05:49:47;9.40;99.90
28773;DHT22;15925;51.222;5.678;2023-04-24T05:52:13;9.40;99.90
28773;DHT22;15925;51.222;5.678;2023-04-24T05:54:40;9.30;99.90
28773;DHT22;15925;51.222;5.678;2023-04-24T05:57:11;9.20;99.90
28773;DHT22;15925;51.222;5.678;2023-04-24T05:59:57;9.20;99.90
28773;DHT22;15925;51.222;5.678;2023-04-24T06:02:25;9.10;99.90
28773;DHT22;15925;51.222;5.678;2023-04-24T06:04:52;9.10;99.90
28773;DHT22;15925;51.222;5.678;2023-04-24T06:07:17;9.00;99.90
28773;DHT22;15925;51.222;5.678;2023-04-24T06:09:44;9.00;99.90
28773;DHT22;15925;51.222;5.678;2023-04-24T06:12:10;8.90;99.90
28773;DHT22;15925;51.222;5.678;2023-04-24T06:14:49;8.90;99.90
28773;DHT22;15925;51.222;5.678;2023-04-24T06:17:19;8.80;99.90
28773;DHT22;15925;51.222;5.678;2023-04-24T06:19:46;8.80;99.90
28773;DHT22;15925;51.222;5.678;2023-04-24T06:22:12;8.80;99.90
28773;DHT22;15925;51.222;5.678;2023-04-24T06:24:39;8.80;99.90
28773;DHT22;15925;51.222;5.678;2023-04-24T06:27:05;8.70;99.90
28773;DHT22;15925;51.222;5.678;2023-04-24T06:29:32;8.60;99.90
28773;DHT22;15925;51.222;5.678;2023-04-24T06:31:58;8.60;99.90
28773;DHT22;15925;51.222;5.678;2023-04-24T06:34:24;8.60;99.90
28773;DHT22;15925;51.222;5.678;2023-04-24T06:36:50;8.60;99.90
28773;DHT22;15925;51.222;5.678;2023-04-24T06:39:16;8.60;99.90
28773;DHT22;15925;51.222;5.678;2023-04-24T06:41:42;8.60;99.90
28773;DHT22;15925;51.222;5.678;2023-04-24T06:44:17;8.60;99.90
28773;DHT22;15925;51.222;5.678;2023-04-24T06:46:43;8.60;99.90
28773;DHT22;15925;51.222;5.678;2023-04-24T06:49:09;8.60;99.90
28773;DHT22;15925;51.222;5.678;2023-04-24T06:51:35;8.50;99.90
28773;DHT22;15925;51.222;5.678;2023-04-24T06:54:01;8.60;99.90
28773;DHT22;15925;51.222;5.678;2023-04-24T06:56:27;8.60;99.90
28773;DHT22;15925;51.222;5.678;2023-04-24T06:58:54;8.60;99.90
28773;DHT22;15925;51.222;5.678;2023-04-24T07:01:20;8.50;99.90
28773;DHT22;15925;51.222;5.678;2023-04-24T07:03:46;8.50;99.90
28773;DHT22;15925;51.222;5.678;2023-04-24T07:06:12;8.50;99.90
28773;DHT22;15925;51.222;5.678;2023-04-24T07:08:38;8.50;99.90
28773;DHT22;15925;51.222;5.678;2023-04-24T07:11:04;8.60;99.90
28773;DHT22;15925;51.222;5.678;2023-04-24T07:13:31;8.60;99.90
28773;DHT22;15925;51.222;5.678;2023-04-24T07:15:57;8.60;99.90
28773;DHT22;15925;51.222;5.678;2023-04-24T07:18:23;8.50;99.90
28773;DHT22;15925;51.222;5.678;2023-04-24T07:20:49;8.60;99.90
28773;DHT22;15925;51.222;5.678;2023-04-24T07:23:17;8.50;99.90
28773;DHT22;15925;51.222;5.678;2023-04-24T07:25:43;8.50;99.90
28773;DHT22;15925;51.222;5.678;2023-04-24T07:28:09;8.50;99.90
28773;DHT22;15925;51.222;5.678;2023-04-24T07:30:35;8.50;99.90
28773;DHT22;15925;51.222;5.678;2023-04-24T07:33:01;8.50;99.90
28773;DHT22;15925;51.222;5.678;2023-04-24T07:35:27;8.50;99.90
28773;DHT22;15925;51.222;5.678;2023-04-24T07:37:53;8.50;99.90
28773;DHT22;15925;51.222;5.678;2023-04-24T07:40:20;8.50;99.90
28773;DHT22;15925;51.222;5.678;2023-04-24T07:42:46;8.50;99.90
28773;DHT22;15925;51.222;5.678;2023-04-24T07:45:14;8.40;99.90
28773;DHT22;15925;51.222;5.678;2023-04-24T07:47:41;8.40;99.90
28773;DHT22;15925;51.222;5.678;2023-04-24T07:50:09;8.40;99.90
28773;DHT22;15925;51.222;5.678;2023-04-24T07:52:35;8.40;99.90
28773;DHT22;15925;51.222;5.678;2023-04-24T07:55:01;8.40;99.90
28773;DHT22;15925;51.222;5.678;2023-04-24T07:57:28;8.40;99.90
28773;DHT22;15925;51.222;5.678;2023-04-24T07:59:54;8.30;99.90
28773;DHT22;15925;51.222;5.678;2023-04-24T08:02:19;8.40;99.90
28773;DHT22;15925;51.222;5.678;2023-04-24T08:04:47;8.40;99.90
28773;DHT22;15925;51.222;5.678;2023-04-24T08:07:12;8.40;99.90
28773;DHT22;15925;51.222;5.678;2023-04-24T08:09:38;8.40;99.90
28773;DHT22;15925;51.222;5.678;2023-04-24T08:12:04;8.40;99.90
28773;DHT22;15925;51.222;5.678;2023-04-24T08:14:30;8.40;99.90
28773;DHT22;15925;51.222;5.678;2023-04-24T08:16:56;8.50;99.90
28773;DHT22;15925;51.222;5.678;2023-04-24T08:19:22;8.60;99.90
28773;DHT22;15925;51.222;5.678;2023-04-24T08:21:48;8.60;99.90
28773;DHT22;15925;51.222;5.678;2023-04-24T08:24:13;8.60;99.90
28773;DHT22;15925;51.222;5.678;2023-04-24T08:26:39;8.70;99.90
28773;DHT22;15925;51.222;5.678;2023-04-24T08:29:05;8.70;99.90
28773;DHT22;15925;51.222;5.678;2023-04-24T08:31:32;8.80;99.90
28773;DHT22;15925;51.222;5.678;2023-04-24T08:33:58;8.80;99.90
28773;DHT22;15925;51.222;5.678;2023-04-24T08:36:25;8.80;99.90
28773;DHT22;15925;51.222;5.678;2023-04-24T08:38:51;8.90;99.90
28773;DHT22;15925;51.222;5.678;2023-04-24T08:41:18;9.00;99.90
28773;DHT22;15925;51.222;5.678;2023-04-24T08:43:46;9.00;99.90
28773;DHT22;15925;51.222;5.678;2023-04-24T08:46:13;9.10;99.90
28773;DHT22;15925;51.222;5.678;2023-04-24T08:48:39;9.10;99.90
28773;DHT22;15925;51.222;5.678;2023-04-24T08:51:07;9.10;99.90
28773;DHT22;15925;51.222;5.678;2023-04-24T08:53:33;9.10;99.90
28773;DHT22;15925;51.222;5.678;2023-04-24T08:56:01;9.20;99.90
28773;DHT22;15925;51.222;5.678;2023-04-24T08:58:28;9.20;99.90
28773;DHT22;15925;51.222;5.678;2023-04-24T09:00:54;9.30;99.90
28773;DHT22;15925;51.222;5.678;2023-04-24T09:03:21;9.30;99.90
28773;DHT22;15925;51.222;5.678;2023-04-24T09:05:48;9.40;99.90
28773;DHT22;15925;51.222;5.678;2023-04-24T09:08:16;9.30;99.90
28773;DHT22;15925;51.222;5.678;2023-04-24T09:10:43;9.30;99.90
28773;DHT22;15925;51.222;5.678;2023-04-24T09:13:09;9.40;99.90
28773;DHT22;15925;51.222;5.678;2023-04-24T09:15:39;9.30;99.90
28773;DHT22;15925;51.222;5.678;2023-04-24T09:18:05;9.40;99.90
28773;DHT22;15925;51.222;5.678;2023-04-24T09:20:32;9.40;99.90
28773;DHT22;15925;51.222;5.678;2023-04-24T09:22:58;9.40;99.90
28773;DHT22;15925;51.222;5.678;2023-04-24T09:25:34;9.30;99.90
28773;DHT22;15925;51.222;5.678;2023-04-24T09:28:01;9.30;99.90
28773;DHT22;15925;51.222;5.678;2023-04-24T09:30:28;9.30;99.90
28773;DHT22;15925;51.222;5.678;2023-04-24T09:33:10;9.30;99.90
28773;DHT22;15925;51.222;5.678;2023-04-24T09:35:39;9.20;99.90
28773;DHT22;15925;51.222;5.678;2023-04-24T09:38:05;9.20;99.90
28773;DHT22;15925;51.222;5.678;2023-04-24T09:40:34;9.20;99.90
28773;DHT22;15925;51.222;5.678;2023-04-24T09:43:00;9.10;99.90
28773;DHT22;15925;51.222;5.678;2023-04-24T09:45:35;9.20;99.90
28773;DHT22;15925;51.222;5.678;2023-04-24T09:48:01;9.20;99.90
28773;DHT22;15925;51.222;5.678;2023-04-24T09:50:29;9.20;99.90
28773;DHT22;15925;51.222;5.678;2023-04-24T09:53:06;9.30;99.90
28773;DHT22;15925;51.222;5.678;2023-04-24T09:55:42;9.40;99.90
28773;DHT22;15925;51.222;5.678;2023-04-24T09:58:10;9.40;99.90
28773;DHT22;15925;51.222;5.678;2023-04-24T10:00:36;9.50;99.90
28773;DHT22;15925;51.222;5.678;2023-04-24T10:03:03;9.60;99.90
28773;DHT22;15925;51.222;5.678;2023-04-24T10:05:32;9.70;99.90
28773;DHT22;15925;51.222;5.678;2023-04-24T10:08:04;9.80;99.90
28773;DHT22;15925;51.222;5.678;2023-04-24T10:10:32;9.90;99.90
28773;DHT22;15925;51.222;5.678;2023-04-24T10:12:59;10.10;99.90
28773;DHT22;15925;51.222;5.678;2023-04-24T10:15:26;10.10;99.90
28773;DHT22;15925;51.222;5.678;2023-04-24T10:17:52;10.20;99.90
28773;DHT22;15925;51.222;5.678;2023-04-24T10:20:23;10.30;99.90
28773;DHT22;15925;51.222;5.678;2023-04-24T10:22:51;10.30;99.90
28773;DHT22;15925;51.222;5.678;2023-04-24T10:25:22;10.30;99.90
28773;DHT22;15925;51.222;5.678;2023-04-24T10:27:50;10.30;99.90
28773;DHT22;15925;51.222;5.678;2023-04-24T10:30:18;10.40;99.90
28773;DHT22;15925;51.222;5.678;2023-04-24T10:32:44;10.30;99.90
28773;DHT22;15925;51.222;5.678;2023-04-24T10:35:12;10.40;99.90
28773;DHT22;15925;51.222;5.678;2023-04-24T10:37:48;10.50;99.90
28773;DHT22;15925;51.222;5.678;2023-04-24T10:40:19;10.50;99.90
28773;DHT22;15925;51.222;5.678;2023-04-24T10:42:52;10.50;99.90
28773;DHT22;15925;51.222;5.678;2023-04-24T10:45:20;10.50;99.90
28773;DHT22;15925;51.222;5.678;2023-04-24T10:48:02;10.60;99.90
28773;DHT22;15925;51.222;5.678;2023-04-24T10:50:34;10.70;99.90
28773;DHT22;15925;51.222;5.678;2023-04-24T10:53:11;10.70;99.90
28773;DHT22;15925;51.222;5.678;2023-04-24T10:58:11;10.90;99.90
28773;DHT22;15925;51.222;5.678;2023-04-24T11:00:41;11.00;99.90
28773;DHT22;15925;51.222;5.678;2023-04-24T11:03:28;11.10;99.90
28773;DHT22;15925;51.222;5.678;2023-04-24T11:06:12;11.10;99.90
28773;DHT22;15925;51.222;5.678;2023-04-24T11:08:42;11.20;99.90
28773;DHT22;15925;51.222;5.678;2023-04-24T11:11:15;11.30;99.90
28773;DHT22;15925;51.222;5.678;2023-04-24T11:22:02;11.00;99.90
28773;DHT22;15925;51.222;5.678;2023-04-24T11:32:19;11.10;99.90
28773;DHT22;15925;51.222;5.678;2023-04-24T11:37:38;11.00;99.90
28773;DHT22;15925;51.222;5.678;2023-04-24T11:40:09;11.00;99.90
28773;DHT22;15925;51.222;5.678;2023-04-24T11:45:06;10.90;99.90
28773;DHT22;15925;51.222;5.678;2023-04-24T11:47:32;10.90;99.90
28773;DHT22;15925;51.222;5.678;2023-04-24T11:49:59;10.90;99.90
28773;DHT22;15925;51.222;5.678;2023-04-24T11:52:29;10.90;99.90
28773;DHT22;15925;51.222;5.678;2023-04-24T11:54:55;10.80;99.90
28773;DHT22;15925;51.222;5.678;2023-04-24T11:57:22;10.80;99.90
28773;DHT22;15925;51.222;5.678;2023-04-24T11:59:49;10.80;99.90
28773;DHT22;15925;51.222;5.678;2023-04-24T12:02:22;10.80;99.90
28773;DHT22;15925;51.222;5.678;2023-04-24T12:04:48;10.80;99.90
28773;DHT22;15925;51.222;5.678;2023-04-24T12:07:14;10.90;99.90
28773;DHT22;15925;51.222;5.678;2023-04-24T12:09:44;10.90;99.90
28773;DHT22;15925;51.222;5.678;2023-04-24T12:12:12;10.90;99.90
28773;DHT22;15925;51.222;5.678;2023-04-24T12:15:01;11.00;99.90
28773;DHT22;15925;51.222;5.678;2023-04-24T12:17:33;11.00;99.90
28773;DHT22;15925;51.222;5.678;2023-04-24T12:20:04;11.10;99.90
28773;DHT22;15925;51.222;5.678;2023-04-24T12:23:03;11.10;99.90
28773;DHT22;15925;51.222;5.678;2023-04-24T12:25:31;11.20;99.90
28773;DHT22;15925;51.222;5.678;2023-04-24T12:30:29;11.10;99.90
28773;DHT22;15925;51.222;5.678;2023-04-24T12:32:58;11.00;99.90
28773;DHT22;15925;51.222;5.678;2023-04-24T12:35:27;10.90;99.90
28773;DHT22;15925;51.222;5.678;2023-04-24T12:37:53;10.70;99.90
28773;DHT22;15925;51.222;5.678;2023-04-24T12:40:20;10.60;99.90
28773;DHT22;15925;51.222;5.678;2023-04-24T12:42:51;10.50;99.90
28773;DHT22;15925;51.222;5.678;2023-04-24T12:45:18;10.40;99.90
28773;DHT22;15925;51.222;5.678;2023-04-24T12:47:45;10.40;99.90
28773;DHT22;15925;51.222;5.678;2023-04-24T12:50:13;10.40;99.90
28773;DHT22;15925;51.222;5.678;2023-04-24T12:52:39;10.40;99.90
28773;DHT22;15925;51.222;5.678;2023-04-24T12:55:05;10.40;99.90
28773;DHT22;15925;51.222;5.678;2023-04-24T12:57:34;10.50;99.90
28773;DHT22;15925;51.222;5.678;2023-04-24T13:00:00;10.70;99.90
28773;DHT22;15925;51.222;5.678;2023-04-24T13:02:28;10.70;99.90
28773;DHT22;15925;51.222;5.678;2023-04-24T13:04:56;10.70;99.90
28773;DHT22;15925;51.222;5.678;2023-04-24T13:07:22;10.70;99.90
28773;DHT22;15925;51.222;5.678;2023-04-24T13:09:49;10.90;99.90
28773;DHT22;15925;51.222;5.678;2023-04-24T13:12:15;10.80;99.90
28773;DHT22;15925;51.222;5.678;2023-04-24T13:14:41;10.80;99.90
28773;DHT22;15925;51.222;5.678;2023-04-24T13:17:07;10.80;99.90
28773;DHT22;15925;51.222;5.678;2023-04-24T13:19:40;10.80;99.90
28773;DHT22;15925;51.222;5.678;2023-04-24T13:22:08;10.90;99.90
28773;DHT22;15925;51.222;5.678;2023-04-24T13:24:34;10.90;99.90
28773;DHT22;15925;51.222;5.678;2023-04-24T13:27:00;11.00;99.90
28773;DHT22;15925;51.222;5.678;2023-04-24T13:29:26;11.10;99.90
28773;DHT22;15925;51.222;5.678;2023-04-24T13:31:54;11.10;99.90
28773;DHT22;15925;51.222;5.678;2023-04-24T13:34:21;11.20;99.90
28773;DHT22;15925;51.222;5.678;2023-04-24T13:36:47;11.40;99.90
28773;DHT22;15925;51.222;5.678;2023-04-24T13:39:13;11.40;99.90
28773;DHT22;15925;51.222;5.678;2023-04-24T13:41:39;11.30;99.90
28773;DHT22;15925;51.222;5.678;2023-04-24T13:44:05;11.30;99.90
28773;DHT22;15925;51.222;5.678;2023-04-24T13:46:31;11.40;99.90
28773;DHT22;15925;51.222;5.678;2023-04-24T13:48:57;11.50;99.90
28773;DHT22;15925;51.222;5.678;2023-04-24T13:51:27;11.60;99.90
28773;DHT22;15925;51.222;5.678;2023-04-24T13:53:53;11.60;99.90
28773;DHT22;15925;51.222;5.678;2023-04-24T13:56:19;11.80;99.90
28773;DHT22;15925;51.222;5.678;2023-04-24T13:58:45;11.70;99.90
28773;DHT22;15925;51.222;5.678;2023-04-24T14:01:12;11.70;99.90
28773;DHT22;15925;51.222;5.678;2023-04-24T14:03:38;11.80;99.90
28773;DHT22;15925;51.222;5.678;2023-04-24T14:06:06;11.80;99.90
28773;DHT22;15925;51.222;5.678;2023-04-24T14:08:32;12.10;99.90
28773;DHT22;15925;51.222;5.678;2023-04-24T14:10:57;12.20;99.90
28773;DHT22;15925;51.222;5.678;2023-04-24T14:13:23;12.20;99.90
28773;DHT22;15925;51.222;5.678;2023-04-24T14:15:50;12.20;99.90
28773;DHT22;15925;51.222;5.678;2023-04-24T14:18:16;12.10;99.90
28773;DHT22;15925;51.222;5.678;2023-04-24T14:20:42;12.10;99.90
28773;DHT22;15925;51.222;5.678;2023-04-24T14:23:08;12.20;99.90
28773;DHT22;15925;51.222;5.678;2023-04-24T14:25:34;12.30;99.90
28773;DHT22;15925;51.222;5.678;2023-04-24T14:28:00;12.30;99.90
28773;DHT22;15925;51.222;5.678;2023-04-24T14:30:26;12.40;99.90
28773;DHT22;15925;51.222;5.678;2023-04-24T14:32:51;12.50;99.90
28773;DHT22;15925;51.222;5.678;2023-04-24T14:35:17;12.40;99.90
28773;DHT22;15925;51.222;5.678;2023-04-24T14:37:43;12.40;99.90
28773;DHT22;15925;51.222;5.678;2023-04-24T14:40:09;12.50;99.90
28773;DHT22;15925;51.222;5.678;2023-04-24T14:42:35;12.50;99.90
28773;DHT22;15925;51.222;5.678;2023-04-24T14:45:01;12.60;99.90
28773;DHT22;15925;51.222;5.678;2023-04-24T14:47:28;12.60;99.90
28773;DHT22;15925;51.222;5.678;2023-04-24T14:49:54;12.70;99.90
28773;DHT22;15925;51.222;5.678;2023-04-24T14:52:20;12.60;99.90
28773;DHT22;15925;51.222;5.678;2023-04-24T14:54:46;12.70;99.90
28773;DHT22;15925;51.222;5.678;2023-04-24T14:57:12;12.80;99.90
28773;DHT22;15925;51.222;5.678;2023-04-24T14:59:38;12.80;99.90
28773;DHT22;15925;51.222;5.678;2023-04-24T15:02:04;12.90;99.90
28773;DHT22;15925;51.222;5.678;2023-04-24T15:04:29;12.90;99.90
28773;DHT22;15925;51.222;5.678;2023-04-24T15:06:56;12.70;99.90
28773;DHT22;15925;51.222;5.678;2023-04-24T15:09:23;12.80;99.90
28773;DHT22;15925;51.222;5.678;2023-04-24T15:11:49;12.90;99.90
28773;DHT22;15925;51.222;5.678;2023-04-24T15:14:16;12.80;99.90
28773;DHT22;15925;51.222;5.678;2023-04-24T15:16:42;12.90;99.90
28773;DHT22;15925;51.222;5.678;2023-04-24T15:19:08;12.80;99.90
28773;DHT22;15925;51.222;5.678;2023-04-24T15:21:35;12.70;99.90
28773;DHT22;15925;51.222;5.678;2023-04-24T15:24:01;12.80;99.90
28773;DHT22;15925;51.222;5.678;2023-04-24T15:26:27;12.70;99.90
28773;DHT22;15925;51.222;5.678;2023-04-24T15:28:53;12.50;99.90
28773;DHT22;15925;51.222;5.678;2023-04-24T15:31:19;12.60;99.90
28773;DHT22;15925;51.222;5.678;2023-04-24T15:33:45;12.50;99.90
28773;DHT22;15925;51.222;5.678;2023-04-24T15:36:11;12.40;99.90
28773;DHT22;15925;51.222;5.678;2023-04-24T15:38:37;12.50;99.90
28773;DHT22;15925;51.222;5.678;2023-04-24T15:41:02;12.50;99.90
28773;DHT22;15925;51.222;5.678;2023-04-24T15:43:28;12.40;99.90
28773;DHT22;15925;51.222;5.678;2023-04-24T15:45:57;12.40;99.90
28773;DHT22;15925;51.222;5.678;2023-04-24T15:48:23;12.50;99.90
28773;DHT22;15925;51.222;5.678;2023-04-24T15:50:49;12.50;99.90
28773;DHT22;15925;51.222;5.678;2023-04-24T15:53:14;12.50;99.90
28773;DHT22;15925;51.222;5.678;2023-04-24T15:55:51;12.50;99.90
28773;DHT22;15925;51.222;5.678;2023-04-24T15:58:17;12.60;99.90
28773;DHT22;15925;51.222;5.678;2023-04-24T16:00:43;12.50;99.90
28773;DHT22;15925;51.222;5.678;2023-04-24T16:03:09;12.60;99.90
28773;DHT22;15925;51.222;5.678;2023-04-24T16:05:35;12.70;99.90